Time;durP1;ratioP1;P1;durP2;ratioP2;P2;SDS_P1;SDS_P2;PMS_P1;PMS_P2;Temp;Humidity;BMP_temperature;BMP_pressure;BME280_temperature;BME280_humidity;BME280_pressure;Samples;Min_cycle;Max_cycle;Signal;HPM_P1;HPM_P2
2023/08/15 21:58:45;;;;;;;17.17;10.70;;;;;;;25.29;45.56;100640.25;1867894;76;26839;-44
2023/08/15 22:01:11;;;;;;;19.48;10.60;;;;;;;25.12;45.36;100634.16;1824540;78;25411;-43
2023/08/15 22:03:37;;;;;;;21.80;10.70;;;;;;;25.03;45.65;100633.20;1824539;78;27481;-45
2023/08/15 22:06:04;;;;;;;19.23;10.55;;;;;;;24.94;45.86;100634.20;1824429;78;25710;-43
2023/08/15 22:08:31;;;;;;;30.50;12.55;;;;;;;24.82;46.34;100637.39;1824517;78;25535;-41
2023/08/15 22:10:57;;;;;;;22.20;12.47;;;;;;;24.70;46.48;100631.68;1824534;78;25533;-42
2023/08/15 22:13:23;;;;;;;26.73;11.70;;;;;;;24.57;46.47;100632.10;1824521;78;25526;-42
2023/08/15 22:15:49;;;;;;;24.90;12.88;;;;;;;24.49;46.84;100630.49;1824541;78;27636;-41
2023/08/15 22:18:16;;;;;;;28.00;14.35;;;;;;;24.40;47.26;100637.81;1824389;78;25708;-42
2023/08/15 22:20:42;;;;;;;29.90;12.60;;;;;;;24.30;47.67;100636.44;1824548;78;25601;-41
2023/08/15 22:23:10;;;;;;;20.82;12.40;;;;;;;24.17;47.56;100638.19;1803848;78;25387;-41
2023/08/15 22:25:47;;;;;;;31.17;11.25;;;;;;;24.09;47.61;100638.58;1824627;78;25440;-42
2023/08/15 22:28:15;;;;;;;33.73;20.37;;;;;;;24.01;47.76;100639.95;1824039;78;28062;-44
2023/08/15 22:30:42;;;;;;;24.75;11.68;;;;;;;23.93;48.37;100638.36;1824141;78;25547;-43
2023/08/15 22:33:08;;;;;;;32.65;11.88;;;;;;;23.83;48.50;100644.05;1821958;78;25884;-43
2023/08/15 22:35:42;;;;;;;83.95;77.32;;;;;;;23.75;48.70;100643.02;1822930;78;25608;-42
2023/08/15 22:38:10;;;;;;;82.02;75.80;;;;;;;23.66;49.43;100644.78;1823778;78;25598;-41
2023/08/15 22:40:36;;;;;;;59.40;54.10;;;;;;;23.55;49.59;100646.13;1823768;78;28015;-41
2023/08/15 22:43:05;;;;;;;27.13;13.88;;;;;;;23.47;49.72;100655.56;1823800;78;25605;-40
2023/08/15 22:45:31;;;;;;;31.05;14.60;;;;;;;23.37;49.88;100652.17;1823959;78;25675;-42
2023/08/15 22:47:57;;;;;;;32.40;19.05;;;;;;;23.27;50.22;100656.45;1824425;78;25234;-41
2023/08/15 22:50:23;;;;;;;29.90;14.35;;;;;;;23.19;50.36;100661.73;1804236;78;25432;-42
2023/08/15 22:52:49;;;;;;;22.55;13.80;;;;;;;23.12;50.52;100656.39;1823949;78;29773;-40
2023/08/15 22:55:16;;;;;;;28.25;14.30;;;;;;;23.05;50.80;100659.66;1824383;78;25556;-42
2023/08/15 22:57:42;;;;;;;34.33;15.68;;;;;;;22.97;51.25;100661.59;1824393;78;25614;-42
2023/08/15 23:00:11;;;;;;;23.40;12.65;;;;;;;22.89;51.66;100659.97;1824385;78;25381;-42
2023/08/15 23:02:37;;;;;;;24.70;12.78;;;;;;;22.82;52.02;100659.92;1831402;78;25378;-41
2023/08/15 23:05:06;;;;;;;27.50;18.67;;;;;;;22.73;52.22;100662.42;1824448;78;27468;-43
2023/08/15 23:07:32;;;;;;;33.95;16.62;;;;;;;22.68;52.26;100661.41;1824554;78;25455;-43
2023/08/15 23:09:58;;;;;;;29.52;14.47;;;;;;;22.61;52.63;100662.73;1823900;78;25631;-42
2023/08/15 23:12:25;;;;;;;32.70;13.03;;;;;;;22.53;52.59;100659.12;1823804;78;25470;-42
2023/08/15 23:14:51;;;;;;;30.62;14.13;;;;;;;22.48;52.74;100657.31;1823840;78;25574;-42
2023/08/15 23:17:17;;;;;;;17.45;11.20;;;;;;;22.42;53.18;100656.85;1823793;78;27470;-43
2023/08/15 23:19:43;;;;;;;27.95;13.53;;;;;;;22.35;53.26;100658.95;1823749;78;25789;-42
2023/08/15 23:22:09;;;;;;;22.22;9.95;;;;;;;22.31;53.77;100659.53;1823812;78;25474;-42
2023/08/15 23:24:37;;;;;;;17.17;10.50;;;;;;;22.25;53.55;100656.88;1823846;78;25456;-43
2023/08/15 23:27:03;;;;;;;28.47;16.67;;;;;;;22.20;53.79;100653.09;1823853;78;25365;-44
2023/08/15 23:29:30;;;;;;;27.93;16.35;;;;;;;22.17;53.80;100659.38;1823795;78;27471;-42
2023/08/15 23:31:58;;;;;;;23.75;15.63;;;;;;;22.13;54.14;100653.03;1823690;78;25588;-43
2023/08/15 23:34:25;;;;;;;40.23;27.62;;;;;;;22.09;54.38;100650.84;1823838;78;25391;-42
2023/08/15 23:36:52;;;;;;;24.98;17.65;;;;;;;22.04;54.38;100649.80;1823783;78;25582;-42
2023/08/15 23:39:21;;;;;;;28.57;25.68;;;;;;;21.99;54.86;100648.96;1823869;78;25432;-43
2023/08/15 23:41:47;;;;;;;40.28;37.23;;;;;;;21.97;55.03;100640.89;1823507;78;27449;-44
2023/08/15 23:44:18;;;;;;;47.67;43.33;;;;;;;21.91;55.04;100635.50;1823699;78;25580;-43
2023/08/15 23:46:45;;;;;;;41.20;38.10;;;;;;;21.88;55.50;100639.00;1823790;78;25584;-43
2023/08/15 23:49:11;;;;;;;23.38;13.28;;;;;;;21.83;55.50;100642.31;1823783;78;25557;-43
2023/08/15 23:51:38;;;;;;;21.93;18.17;;;;;;;21.80;55.35;100638.94;1823829;78;25419;-42
2023/08/15 23:54:06;;;;;;;45.28;41.35;;;;;;;21.77;55.88;100643.81;1823794;78;26551;-45
2023/08/15 23:56:32;;;;;;;48.00;44.35;;;;;;;21.73;55.58;100640.84;1823696;78;25677;-42
2023/08/15 23:58:58;;;;;;;19.10;11.78;;;;;;;21.68;55.99;100635.08;1828694;78;25413;-42
